Time;durP1;ratioP1;P1;durP2;ratioP2;P2;SDS_P1;SDS_P2;PMS_P1;PMS_P2;Temp;Humidity;BMP_temperature;BMP_pressure;BME280_temperature;BME280_humidity;BME280_pressure;Samples;Min_cycle;Max_cycle;Signal;HPM_P1;HPM_P2
2023/07/26 00:02:26;;;;;;;7.80;2.45;;;;;;;;;;5057822;28;22735;-66
2023/07/26 00:04:54;;;;;;;11.07;2.97;;;;;;;;;;5058428;28;20055;-67
2023/07/26 00:07:22;;;;;;;7.55;2.65;;;;;;;;;;5063160;28;20048;-67
2023/07/26 00:09:50;;;;;;;8.00;2.92;;;;;;;;;;5062668;28;20139;-67
2023/07/26 00:12:19;;;;;;;8.10;2.85;;;;;;;;;;5056744;28;20959;-67
2023/07/26 00:14:46;;;;;;;8.07;2.90;;;;;;;;;;5056586;28;20048;-67
2023/07/26 00:17:14;;;;;;;7.07;2.70;;;;;;;;;;5054617;28;20055;-68
2023/07/26 00:19:43;;;;;;;6.70;2.42;;;;;;;;;;5062629;28;20052;-67
2023/07/26 00:22:10;;;;;;;7.45;2.83;;;;;;;;;;5056774;28;20052;-68
2023/07/26 00:24:38;;;;;;;8.10;2.78;;;;;;;;;;5067950;28;20071;-67
2023/07/26 00:27:06;;;;;;;7.43;2.60;;;;;;;;;;5056334;28;20159;-67
2023/07/26 00:29:35;;;;;;;6.87;2.17;;;;;;;;;;5065528;28;20067;-68
2023/07/26 00:32:03;;;;;;;7.18;2.50;;;;;;;;;;5056100;28;20056;-68
2023/07/26 00:34:34;;;;;;;7.63;2.30;;;;;;;;;;5062537;28;20048;-69
2023/07/26 00:37:03;;;;;;;8.65;2.85;;;;;;;;;;5056433;28;20399;-69
2023/07/26 00:39:31;;;;;;;6.75;2.80;;;;;;;;;;5051036;28;20040;-67
2023/07/26 00:41:59;;;;;;;9.07;2.73;;;;;;;;;;5065539;28;20055;-68
2023/07/26 00:44:26;;;;;;;7.90;2.60;;;;;;;;;;5054864;28;20055;-67
2023/07/26 00:46:57;;;;;;;8.02;2.53;;;;;;;;;;5060238;28;20532;-68
2023/07/26 00:49:24;;;;;;;8.85;2.80;;;;;;;;;;5059388;28;20505;-67
2023/07/26 00:51:52;;;;;;;9.88;3.72;;;;;;;;;;5057418;28;21064;-67
2023/07/26 00:54:20;;;;;;;7.17;2.97;;;;;;;;;;5062458;28;20059;-67
2023/07/26 00:56:48;;;;;;;8.80;2.72;;;;;;;;;;5054431;28;20040;-68
2023/07/26 00:59:16;;;;;;;7.80;2.92;;;;;;;;;;5063842;28;20271;-68
2023/07/26 01:01:44;;;;;;;9.52;2.75;;;;;;;;;;5052994;28;20056;-68
2023/07/26 01:04:13;;;;;;;7.38;3.20;;;;;;;;;;5065960;28;20072;-67
2023/07/26 01:06:43;;;;;;;7.87;2.80;;;;;;;;;;5063126;28;20521;-67
2023/07/26 01:09:13;;;;;;;7.45;2.80;;;;;;;;;;5053767;28;20062;-68
2023/07/26 01:11:45;;;;;;;8.32;2.90;;;;;;;;;;5064068;28;20116;-67
2023/07/26 01:14:16;;;;;;;10.32;3.17;;;;;;;;;;5051606;28;20044;-67
2023/07/26 01:16:49;;;;;;;7.68;2.88;;;;;;;;;;5069375;28;20166;-68
2023/07/26 01:19:19;;;;;;;7.43;3.23;;;;;;;;;;5048880;28;20033;-67
2023/07/26 01:21:48;;;;;;;8.77;3.28;;;;;;;;;;5056408;28;20060;-67
2023/07/26 01:24:15;;;;;;;8.93;3.85;;;;;;;;;;5068971;28;20054;-68
2023/07/26 01:26:43;;;;;;;11.95;3.40;;;;;;;;;;5042961;28;20055;-67
2023/07/26 01:29:11;;;;;;;10.48;3.25;;;;;;;;;;5070367;28;20136;-68
2023/07/26 01:31:39;;;;;;;8.70;3.10;;;;;;;;;;5059083;28;20132;-67
2023/07/26 01:34:08;;;;;;;7.78;3.28;;;;;;;;;;5067895;28;20052;-67
2023/07/26 01:36:36;;;;;;;10.25;3.55;;;;;;;;;;5058751;28;20085;-67
2023/07/26 01:39:05;;;;;;;8.35;3.03;;;;;;;;;;5068388;28;20051;-67
2023/07/26 01:41:33;;;;;;;9.55;3.40;;;;;;;;;;5036850;28;20080;-68
2023/07/26 01:44:02;;;;;;;8.37;3.50;;;;;;;;;;5050402;28;20047;-68
2023/07/26 01:46:30;;;;;;;8.68;3.25;;;;;;;;;;5046356;28;20044;-69
2023/07/26 01:48:58;;;;;;;9.13;3.72;;;;;;;;;;5072249;28;20048;-68
2023/07/26 01:51:25;;;;;;;8.13;3.08;;;;;;;;;;5069985;28;20079;-68
2023/07/26 01:53:53;;;;;;;8.35;3.33;;;;;;;;;;5072953;28;20078;-68
2023/07/26 01:56:22;;;;;;;9.40;4.00;;;;;;;;;;5058063;28;20108;-68
2023/07/26 01:58:51;;;;;;;15.45;4.28;;;;;;;;;;5018242;28;20731;-68
2023/07/26 02:01:19;;;;;;;8.43;3.60;;;;;;;;;;5076303;28;20060;-68
2023/07/26 02:03:46;;;;;;;9.45;3.42;;;;;;;;;;5033837;28;21868;-68
2023/07/26 02:06:15;;;;;;;10.80;4.10;;;;;;;;;;5062328;28;20055;-68
2023/07/26 02:08:43;;;;;;;11.80;4.57;;;;;;;;;;5055464;28;20738;-60
2023/07/26 02:11:10;;;;;;;9.82;3.80;;;;;;;;;;5077998;28;20055;-68
2023/07/26 02:13:40;;;;;;;10.50;3.55;;;;;;;;;;5042380;28;21294;-68
2023/07/26 02:16:08;;;;;;;15.25;3.47;;;;;;;;;;5055029;28;20075;-68
2023/07/26 02:18:35;;;;;;;10.40;3.83;;;;;;;;;;5061968;28;20060;-67
2023/07/26 02:21:03;;;;;;;7.60;2.97;;;;;;;;;;5062176;28;20077;-61
2023/07/26 02:23:31;;;;;;;10.15;3.97;;;;;;;;;;5060203;28;20575;-68
2023/07/26 02:25:58;;;;;;;15.75;3.22;;;;;;;;;;5061137;28;20135;-68
2023/07/26 02:28:26;;;;;;;8.98;3.50;;;;;;;;;;5055115;28;20422;-68
2023/07/26 02:30:55;;;;;;;8.88;3.80;;;;;;;;;;5070469;28;20066;-68
2023/07/26 02:33:23;;;;;;;9.10;3.40;;;;;;;;;;5046102;28;20067;-60
2023/07/26 02:35:50;;;;;;;9.80;3.75;;;;;;;;;;5061525;28;20048;-68
2023/07/26 02:38:18;;;;;;;7.95;3.10;;;;;;;;;;5058931;28;20515;-69
2023/07/26 02:40:46;;;;;;;8.77;3.20;;;;;;;;;;5051414;28;20052;-69
2023/07/26 02:43:13;;;;;;;9.02;3.75;;;;;;;;;;5062355;28;20040;-68
2023/07/26 02:45:53;;;;;;;7.27;3.03;;;;;;;;;;5066521;28;20052;-68
2023/07/26 02:48:22;;;;;;;7.55;3.00;;;;;;;;;;5063351;28;20048;-69
2023/07/26 02:50:50;;;;;;;8.25;3.40;;;;;;;;;;5051215;28;21446;-68
2023/07/26 02:53:17;;;;;;;7.60;2.97;;;;;;;;;;5066344;28;20044;-67
2023/07/26 02:55:45;;;;;;;9.80;3.47;;;;;;;;;;5027060;28;20044;-68
2023/07/26 02:58:13;;;;;;;10.73;2.90;;;;;;;;;;5060777;28;20040;-69
2023/07/26 03:00:41;;;;;;;7.35;2.75;;;;;;;;;;5054071;28;20044;-68
2023/07/26 03:03:10;;;;;;;8.25;3.30;;;;;;;;;;5052533;28;20059;-68
2023/07/26 03:05:43;;;;;;;7.32;2.50;;;;;;;;;;5047601;28;20052;-68
2023/07/26 03:08:11;;;;;;;7.95;3.13;;;;;;;;;;5066667;28;20052;-68
2023/07/26 03:10:38;;;;;;;9.90;3.20;;;;;;;;;;5063669;28;20058;-68
2023/07/26 03:13:06;;;;;;;8.18;2.80;;;;;;;;;;5060366;28;20392;-71
2023/07/26 03:15:39;;;;;;;8.70;3.00;;;;;;;;;;5051252;28;20256;-68
2023/07/26 03:18:06;;;;;;;9.55;3.47;;;;;;;;;;5053761;28;20517;-68
2023/07/26 03:20:34;;;;;;;8.88;3.05;;;;;;;;;;5056613;28;20509;-69
2023/07/26 03:23:03;;;;;;;9.23;3.70;;;;;;;;;;5060700;28;20052;-68
2023/07/26 03:25:31;;;;;;;9.63;3.00;;;;;;;;;;5050077;28;20044;-68
2023/07/26 03:27:58;;;;;;;7.55;3.13;;;;;;;;;;5056842;28;20044;-69
2023/07/26 03:30:26;;;;;;;8.70;2.70;;;;;;;;;;5057947;28;20158;-68
2023/07/26 03:32:54;;;;;;;7.13;2.67;;;;;;;;;;5062268;28;20055;-68
2023/07/26 03:35:21;;;;;;;7.33;2.83;;;;;;;;;;5070386;28;20109;-69
2023/07/26 03:37:49;;;;;;;7.40;2.78;;;;;;;;;;5050246;28;20055;-68
2023/07/26 03:40:19;;;;;;;10.77;3.20;;;;;;;;;;5062389;28;20125;-67
2023/07/26 03:42:47;;;;;;;8.60;2.88;;;;;;;;;;5056763;28;20059;-68
2023/07/26 03:45:16;;;;;;;9.35;2.92;;;;;;;;;;5059504;28;20579;-69
2023/07/26 03:47:47;;;;;;;9.03;2.90;;;;;;;;;;5053706;28;20074;-68
2023/07/26 03:50:15;;;;;;;9.10;3.03;;;;;;;;;;5066621;28;20052;-67
2023/07/26 03:52:43;;;;;;;8.30;2.65;;;;;;;;;;5038186;28;20048;-67
2023/07/26 03:55:10;;;;;;;8.68;2.92;;;;;;;;;;5059005;28;20072;-67
2023/07/26 03:57:39;;;;;;;9.32;2.70;;;;;;;;;;5066611;28;20055;-67
2023/07/26 04:00:08;;;;;;;7.87;2.97;;;;;;;;;;5054625;28;20049;-68
2023/07/26 04:02:36;;;;;;;9.10;2.67;;;;;;;;;;5061433;28;20055;-68
2023/07/26 04:05:05;;;;;;;9.85;2.88;;;;;;;;;;5054828;28;20898;-67
2023/07/26 04:07:33;;;;;;;12.65;2.60;;;;;;;;;;5075221;28;20055;-69
2023/07/26 04:10:01;;;;;;;7.65;2.65;;;;;;;;;;5054242;28;20667;-68
2023/07/26 04:12:29;;;;;;;7.37;3.03;;;;;;;;;;5061257;28;20049;-68
2023/07/26 04:14:58;;;;;;;8.13;2.90;;;;;;;;;;5053862;28;20362;-68
2023/07/26 04:17:25;;;;;;;7.28;2.78;;;;;;;;;;5066929;28;20063;-68
2023/07/26 04:19:53;;;;;;;7.90;2.50;;;;;;;;;;5058034;28;20052;-68
2023/07/26 04:22:21;;;;;;;8.88;2.88;;;;;;;;;;5064672;28;20055;-69
2023/07/26 04:24:49;;;;;;;9.10;2.90;;;;;;;;;;5052385;28;20767;-68
2023/07/26 04:27:17;;;;;;;8.40;2.90;;;;;;;;;;5053353;28;20052;-69
2023/07/26 04:29:46;;;;;;;8.77;2.63;;;;;;;;;;5060662;28;20109;-69
2023/07/26 04:32:14;;;;;;;8.85;2.75;;;;;;;;;;5071160;28;20055;-69
2023/07/26 04:34:43;;;;;;;6.68;2.50;;;;;;;;;;5057947;28;20135;-69
2023/07/26 04:37:11;;;;;;;7.33;2.50;;;;;;;;;;5072819;28;20055;-69
2023/07/26 04:39:38;;;;;;;9.20;2.90;;;;;;;;;;5062019;28;20055;-69
2023/07/26 04:42:06;;;;;;;10.18;3.22;;;;;;;;;;5064571;28;20146;-68
2023/07/26 04:44:34;;;;;;;9.48;3.00;;;;;;;;;;5060690;28;20459;-69
2023/07/26 04:47:01;;;;;;;9.40;2.92;;;;;;;;;;5071378;28;20043;-68
2023/07/26 04:49:30;;;;;;;10.47;2.87;;;;;;;;;;5059211;28;20048;-69
2023/07/26 04:51:58;;;;;;;8.15;3.00;;;;;;;;;;5070460;28;20427;-68
2023/07/26 04:54:26;;;;;;;11.57;3.45;;;;;;;;;;5062434;28;20140;-69
2023/07/26 04:56:53;;;;;;;9.70;2.90;;;;;;;;;;5068789;28;20486;-69
2023/07/26 04:59:26;;;;;;;8.75;2.40;;;;;;;;;;5061022;28;20051;-69
2023/07/26 05:01:54;;;;;;;9.57;3.00;;;;;;;;;;5049770;28;20047;-69
2023/07/26 05:04:22;;;;;;;10.38;2.95;;;;;;;;;;5056190;28;20047;-68
2023/07/26 05:06:51;;;;;;;8.40;2.60;;;;;;;;;;5059259;28;20052;-70
2023/07/26 05:09:18;;;;;;;8.13;2.50;;;;;;;;;;5064448;28;20051;-69
2023/07/26 05:11:46;;;;;;;8.77;2.78;;;;;;;;;;5054135;28;20060;-69
2023/07/26 05:14:14;;;;;;;8.10;2.77;;;;;;;;;;5070885;28;20048;-69
2023/07/26 05:16:42;;;;;;;7.70;2.42;;;;;;;;;;5056928;28;20044;-69
2023/07/26 05:19:09;;;;;;;9.43;2.78;;;;;;;;;;5063781;28;20155;-70
2023/07/26 05:21:37;;;;;;;8.02;2.63;;;;;;;;;;5059124;28;20059;-70
2023/07/26 05:24:06;;;;;;;8.13;2.75;;;;;;;;;;5060998;28;20071;-70
2023/07/26 05:26:34;;;;;;;8.57;2.40;;;;;;;;;;5055477;28;20483;-69
2023/07/26 05:29:02;;;;;;;8.30;2.67;;;;;;;;;;5066371;28;20126;-69
2023/07/26 05:31:30;;;;;;;7.63;3.20;;;;;;;;;;5056854;28;20132;-69
2023/07/26 05:33:59;;;;;;;8.10;2.60;;;;;;;;;;5065147;28;20139;-69
2023/07/26 05:36:28;;;;;;;9.25;2.72;;;;;;;;;;5070886;28;20048;-69
2023/07/26 05:38:55;;;;;;;9.43;2.80;;;;;;;;;;5050051;28;20050;-69
2023/07/26 05:41:26;;;;;;;12.98;2.45;;;;;;;;;;5069098;28;20044;-69
2023/07/26 05:43:54;;;;;;;8.77;2.67;;;;;;;;;;5059917;28;20436;-69
2023/07/26 05:46:22;;;;;;;8.55;2.88;;;;;;;;;;5068641;28;20066;-69
2023/07/26 05:48:49;;;;;;;7.82;2.47;;;;;;;;;;5058256;28;20711;-69
2023/07/26 05:51:17;;;;;;;10.43;2.80;;;;;;;;;;5054691;28;20048;-69
2023/07/26 05:53:47;;;;;;;8.80;2.50;;;;;;;;;;5063887;28;20074;-69
2023/07/26 05:56:15;;;;;;;6.82;1.98;;;;;;;;;;5055896;28;20044;-69
2023/07/26 05:58:44;;;;;;;10.23;2.85;;;;;;;;;;5028390;28;20039;-68
2023/07/26 06:01:13;;;;;;;7.05;2.58;;;;;;;;;;5048945;28;20422;-69
2023/07/26 06:03:42;;;;;;;7.70;2.53;;;;;;;;;;5063263;28;20047;-68
2023/07/26 06:06:11;;;;;;;8.77;2.38;;;;;;;;;;5066087;28;20048;-68
2023/07/26 06:08:38;;;;;;;7.68;3.15;;;;;;;;;;5061442;28;20055;-68
2023/07/26 06:11:07;;;;;;;9.77;2.70;;;;;;;;;;5058215;28;20578;-69
2023/07/26 06:13:35;;;;;;;8.32;2.38;;;;;;;;;;5052769;28;20080;-68
2023/07/26 06:16:08;;;;;;;10.07;2.80;;;;;;;;;;5071615;28;20483;-69
2023/07/26 06:18:36;;;;;;;9.63;2.58;;;;;;;;;;5061964;28;20131;-68
2023/07/26 06:21:04;;;;;;;8.45;2.55;;;;;;;;;;5051808;28;20052;-62
2023/07/26 06:23:32;;;;;;;9.27;2.35;;;;;;;;;;5068103;28;20052;-68
2023/07/26 06:25:59;;;;;;;9.13;2.47;;;;;;;;;;5047392;28;20195;-68
2023/07/26 06:28:27;;;;;;;9.97;3.43;;;;;;;;;;5067138;28;20123;-68
2023/07/26 06:30:56;;;;;;;6.55;2.08;;;;;;;;;;5063032;28;20128;-68
2023/07/26 06:33:25;;;;;;;8.25;2.25;;;;;;;;;;5044642;28;20628;-68
2023/07/26 06:35:53;;;;;;;9.70;2.88;;;;;;;;;;5070566;28;20628;-68
2023/07/26 06:38:21;;;;;;;7.57;2.33;;;;;;;;;;5060731;28;20502;-69
2023/07/26 06:40:49;;;;;;;7.57;2.47;;;;;;;;;;5068981;28;20067;-68
2023/07/26 06:43:16;;;;;;;10.38;2.53;;;;;;;;;;5029866;28;20048;-69
2023/07/26 06:45:44;;;;;;;8.50;3.00;;;;;;;;;;5070571;28;20051;-68
2023/07/26 06:48:12;;;;;;;8.40;2.38;;;;;;;;;;5050077;28;20105;-69
2023/07/26 06:50:42;;;;;;;10.10;2.67;;;;;;;;;;5062552;28;20052;-68
2023/07/26 06:53:10;;;;;;;9.47;2.60;;;;;;;;;;5061555;28;20139;-69
2023/07/26 06:55:38;;;;;;;7.97;2.40;;;;;;;;;;5054843;28;20052;-70
2023/07/26 06:58:06;;;;;;;7.68;2.10;;;;;;;;;;5067408;28;20055;-69
2023/07/26 07:00:35;;;;;;;8.32;2.80;;;;;;;;;;5048277;28;20435;-69
2023/07/26 07:03:10;;;;;;;7.07;2.00;;;;;;;;;;5053413;28;20059;-69
2023/07/26 07:05:38;;;;;;;8.33;2.50;;;;;;;;;;5059356;28;20051;-68
2023/07/26 07:08:25;;;;;;;7.95;2.50;;;;;;;;;;5045392;28;20677;-62
2023/07/26 07:10:53;;;;;;;8.02;2.40;;;;;;;;;;5066146;28;20096;-69
2023/07/26 07:13:21;;;;;;;10.27;2.72;;;;;;;;;;5035761;28;20047;-69
2023/07/26 07:15:48;;;;;;;9.25;2.90;;;;;;;;;;5052586;28;20126;-68
2023/07/26 07:18:16;;;;;;;9.57;2.70;;;;;;;;;;5055952;28;20064;-69
2023/07/26 07:20:44;;;;;;;7.65;2.50;;;;;;;;;;5048602;28;20054;-67
2023/07/26 07:23:11;;;;;;;8.30;2.65;;;;;;;;;;5057801;28;20047;-69
2023/07/26 07:25:40;;;;;;;9.82;3.00;;;;;;;;;;5066332;28;20051;-69
2023/07/26 07:28:08;;;;;;;10.48;3.38;;;;;;;;;;5060308;28;20048;-69
2023/07/26 07:30:36;;;;;;;9.43;3.27;;;;;;;;;;5056185;28;20530;-69
2023/07/26 07:33:04;;;;;;;8.25;2.90;;;;;;;;;;5051987;28;20054;-69
2023/07/26 07:35:32;;;;;;;8.27;3.33;;;;;;;;;;5055381;28;20070;-70
2023/07/26 07:37:59;;;;;;;7.65;2.38;;;;;;;;;;5061122;28;20040;-70
2023/07/26 07:40:27;;;;;;;8.38;2.78;;;;;;;;;;5047082;28;20048;-70
2023/07/26 07:42:56;;;;;;;7.60;2.40;;;;;;;;;;5068532;28;20043;-70
2023/07/26 07:45:24;;;;;;;8.13;2.50;;;;;;;;;;5054476;28;20426;-70
2023/07/26 07:47:52;;;;;;;8.75;2.75;;;;;;;;;;5061149;28;20048;-70
2023/07/26 07:50:20;;;;;;;7.60;2.92;;;;;;;;;;5050921;28;20076;-70
2023/07/26 07:52:47;;;;;;;6.47;2.50;;;;;;;;;;5057939;28;20051;-70
2023/07/26 07:55:15;;;;;;;10.07;2.77;;;;;;;;;;5050613;28;20048;-69
2023/07/26 07:57:43;;;;;;;7.90;2.28;;;;;;;;;;5046877;28;20044;-70
2023/07/26 08:00:13;;;;;;;9.40;2.55;;;;;;;;;;5061485;28;20057;-69
2023/07/26 08:02:41;;;;;;;8.60;2.33;;;;;;;;;;5055377;28;20045;-69
2023/07/26 08:05:09;;;;;;;8.07;2.60;;;;;;;;;;4354902;28;10000471;-69
2023/07/26 08:07:37;;;;;;;9.17;2.20;;;;;;;;;;5061552;28;20058;-69
2023/07/26 08:10:06;;;;;;;10.38;2.70;;;;;;;;;;5039436;28;20577;-68
2023/07/26 08:12:34;;;;;;;8.18;2.55;;;;;;;;;;5061088;28;20044;-68
2023/07/26 08:15:02;;;;;;;7.75;2.42;;;;;;;;;;5054153;28;20044;-68
2023/07/26 08:17:31;;;;;;;6.45;2.03;;;;;;;;;;5061874;28;20052;-68
2023/07/26 08:19:58;;;;;;;9.43;2.77;;;;;;;;;;4348868;28;10000616;-69
2023/07/26 08:22:26;;;;;;;6.95;2.35;;;;;;;;;;5049569;28;20128;-68
2023/07/26 08:24:54;;;;;;;7.32;2.75;;;;;;;;;;5027682;28;20058;-69
2023/07/26 08:27:23;;;;;;;9.73;2.90;;;;;;;;;;5053688;28;20139;-65
2023/07/26 08:29:51;;;;;;;7.95;2.50;;;;;;;;;;5029005;28;20466;-69
2023/07/26 08:32:19;;;;;;;8.30;2.73;;;;;;;;;;5052847;28;20226;-69
2023/07/26 08:34:48;;;;;;;7.10;2.63;;;;;;;;;;5048790;28;20612;-69
2023/07/26 08:37:18;;;;;;;8.93;2.55;;;;;;;;;;5042389;28;20056;-69
2023/07/26 08:39:46;;;;;;;6.78;2.58;;;;;;;;;;5046738;28;20052;-68
2023/07/26 08:42:14;;;;;;;8.95;2.45;;;;;;;;;;5031349;28;20128;-67
2023/07/26 08:44:43;;;;;;;6.90;2.30;;;;;;;;;;5047430;28;20506;-68
2023/07/26 08:47:11;;;;;;;7.35;2.30;;;;;;;;;;5040821;28;20056;-68
2023/07/26 08:49:39;;;;;;;7.53;2.72;;;;;;;;;;5051946;28;20067;-68
2023/07/26 08:52:10;;;;;;;7.53;2.50;;;;;;;;;;5046317;28;20058;-70
2023/07/26 08:54:38;;;;;;;7.20;2.20;;;;;;;;;;5047065;28;20040;-68
2023/07/26 08:57:06;;;;;;;7.00;2.23;;;;;;;;;;5043573;28;20060;-68
2023/07/26 08:59:33;;;;;;;17.90;4.28;;;;;;;;;;5046665;28;20036;-68
2023/07/26 09:02:01;;;;;;;10.27;2.80;;;;;;;;;;5053638;28;20044;-68
2023/07/26 09:04:31;;;;;;;8.95;2.47;;;;;;;;;;5033187;28;20131;-68
2023/07/26 09:07:01;;;;;;;8.50;2.80;;;;;;;;;;5043635;28;20056;-67
2023/07/26 09:09:31;;;;;;;7.23;2.70;;;;;;;;;;5057140;28;20048;-67
2023/07/26 09:11:59;;;;;;;6.35;2.03;;;;;;;;;;5058087;28;20062;-68
2023/07/26 09:14:27;;;;;;;7.57;2.38;;;;;;;;;;5069497;28;20052;-67
2023/07/26 09:16:56;;;;;;;8.63;2.42;;;;;;;;;;5052963;28;20047;-68
2023/07/26 09:19:29;;;;;;;6.70;1.90;;;;;;;;;;5070578;28;20079;-68
2023/07/26 09:21:59;;;;;;;7.20;2.03;;;;;;;;;;5051590;28;20044;-68
2023/07/26 09:24:33;;;;;;;9.00;2.45;;;;;;;;;;5047170;28;20051;-68
2023/07/26 09:27:06;;;;;;;6.32;2.33;;;;;;;;;;5065679;28;20051;-68
2023/07/26 09:29:34;;;;;;;8.13;1.80;;;;;;;;;;5063189;28;20052;-68
2023/07/26 09:32:02;;;;;;;6.43;2.08;;;;;;;;;;5070716;28;20044;-68
2023/07/26 09:34:30;;;;;;;6.97;2.40;;;;;;;;;;5063171;28;20059;-68
2023/07/26 09:36:58;;;;;;;8.13;2.40;;;;;;;;;;5065901;28;20040;-68
2023/07/26 09:39:28;;;;;;;8.27;2.60;;;;;;;;;;5062030;28;20044;-68
2023/07/26 09:42:08;;;;;;;6.85;2.55;;;;;;;;;;5056204;28;20098;-68
2023/07/26 09:44:36;;;;;;;11.15;2.45;;;;;;;;;;5057358;28;20096;-68
2023/07/26 09:47:05;;;;;;;6.83;1.83;;;;;;;;;;5063715;28;20052;-67
2023/07/26 09:49:34;;;;;;;7.10;2.13;;;;;;;;;;5025678;28;20109;-68
2023/07/26 09:52:14;;;;;;;6.15;1.73;;;;;;;;;;5046074;28;20056;-67
2023/07/26 09:54:43;;;;;;;8.40;2.08;;;;;;;;;;5017468;28;20486;-67
2023/07/26 09:57:17;;;;;;;6.68;1.90;;;;;;;;;;5030879;28;20640;-70
2023/07/26 09:59:45;;;;;;;7.30;1.83;;;;;;;;;;5060986;28;20052;-69
2023/07/26 10:02:16;;;;;;;5.38;1.38;;;;;;;;;;5059130;28;20052;-69
2023/07/26 10:04:48;;;;;;;4.57;1.40;;;;;;;;;;5070863;28;20052;-64
2023/07/26 10:07:16;;;;;;;4.75;1.20;;;;;;;;;;5070253;28;20063;-68
2023/07/26 10:09:45;;;;;;;5.15;1.40;;;;;;;;;;5060045;28;20165;-68
2023/07/26 10:12:13;;;;;;;6.83;1.77;;;;;;;;;;5058813;28;20048;-69
2023/07/26 10:14:44;;;;;;;6.10;1.83;;;;;;;;;;5056964;28;20093;-68
2023/07/26 10:17:14;;;;;;;6.43;2.05;;;;;;;;;;5067658;28;20088;-67
2023/07/26 10:19:44;;;;;;;6.55;1.60;;;;;;;;;;5053639;28;20086;-67
2023/07/26 10:22:12;;;;;;;6.43;1.70;;;;;;;;;;4714893;28;10000039;-67
2023/07/26 10:24:41;;;;;;;7.68;1.67;;;;;;;;;;5059529;28;20497;-67
2023/07/26 10:27:30;;;;;;;4.53;1.20;;;;;;;;;;5069707;28;20063;-67
2023/07/26 10:29:59;;;;;;;5.03;1.33;;;;;;;;;;5060804;28;20490;-68
2023/07/26 10:32:27;;;;;;;5.57;1.40;;;;;;;;;;5059563;28;20087;-68
2023/07/26 10:34:56;;;;;;;6.10;1.70;;;;;;;;;;5070444;28;20511;-67
2023/07/26 10:37:30;;;;;;;5.40;1.40;;;;;;;;;;5058400;28;20300;-67
2023/07/26 10:39:58;;;;;;;4.95;1.25;;;;;;;;;;5069638;28;20048;-67
2023/07/26 10:42:26;;;;;;;6.60;1.70;;;;;;;;;;5034139;28;20116;-67
2023/07/26 10:44:55;;;;;;;4.88;1.13;;;;;;;;;;5072346;28;20119;-67
2023/07/26 10:47:24;;;;;;;5.25;1.58;;;;;;;;;;5051075;28;20052;-66
2023/07/26 10:49:54;;;;;;;5.30;1.40;;;;;;;;;;5060475;28;20498;-68
2023/07/26 10:52:22;;;;;;;4.50;1.20;;;;;;;;;;5059392;28;20062;-67
2023/07/26 10:54:50;;;;;;;5.17;1.20;;;;;;;;;;5067496;28;20040;-67
2023/07/26 10:57:19;;;;;;;5.97;1.30;;;;;;;;;;5060018;28;20588;-67
2023/07/26 10:59:51;;;;;;;5.18;1.40;;;;;;;;;;5062853;28;20064;-67
2023/07/26 11:15:43;;;;;;;5.43;1.60;;;;;;;;;;6296334;22;1311821;-68
2023/07/26 11:18:30;;;;;;;7.13;1.70;;;;;;;;;;6312567;22;20015;-66
2023/07/26 11:20:58;;;;;;;5.07;1.80;;;;;;;;;;6321942;22;20086;-67
2023/07/26 11:23:31;;;;;;;4.73;1.40;;;;;;;;;;6319376;22;20377;-67
2023/07/26 11:26:00;;;;;;;5.63;1.67;;;;;;;;;;6305899;22;20064;-66
2023/07/26 11:28:32;;;;;;;7.07;1.55;;;;;;;;;;6311826;22;20017;-66
2023/07/26 11:31:02;;;;;;;4.80;1.35;;;;;;;;;;6313567;22;20011;-66
2023/07/26 11:33:31;;;;;;;4.75;1.15;;;;;;;;;;6323478;22;20015;-66
2023/07/26 11:36:00;;;;;;;4.50;1.40;;;;;;;;;;6309747;22;20018;-67
2023/07/26 11:38:28;;;;;;;6.05;1.67;;;;;;;;;;6317920;22;20015;-66
2023/07/26 11:40:57;;;;;;;6.07;1.75;;;;;;;;;;6311929;22;20215;-66
2023/07/26 11:43:25;;;;;;;5.50;1.60;;;;;;;;;;6317797;22;20148;-66
2023/07/26 11:45:54;;;;;;;5.28;1.80;;;;;;;;;;6307777;22;20038;-67
2023/07/26 11:48:26;;;;;;;6.30;1.80;;;;;;;;;;6304151;22;20038;-67
2023/07/26 11:50:59;;;;;;;5.05;1.50;;;;;;;;;;6311396;22;20264;-67
2023/07/26 11:53:28;;;;;;;7.32;1.90;;;;;;;;;;6308651;22;20048;-66
2023/07/26 11:56:10;;;;;;;5.75;1.70;;;;;;;;;;6314931;22;20097;-66
2023/07/26 11:58:38;;;;;;;9.18;2.10;;;;;;;;;;6314349;22;20067;-67
2023/07/26 12:01:06;;;;;;;5.33;2.20;;;;;;;;;;6314912;22;20014;-67
2023/07/26 12:03:36;;;;;;;6.35;2.58;;;;;;;;;;6316450;22;20018;-66
2023/07/26 12:06:06;;;;;;;5.95;2.00;;;;;;;;;;6306005;22;20029;-61
2023/07/26 12:08:37;;;;;;;7.90;3.08;;;;;;;;;;6310254;22;20042;-67
2023/07/26 12:11:06;;;;;;;6.95;2.08;;;;;;;;;;6321907;22;20135;-66
2023/07/26 12:13:35;;;;;;;6.87;2.00;;;;;;;;;;6307539;22;20345;-67
2023/07/26 12:16:03;;;;;;;6.00;1.80;;;;;;;;;;6312169;22;20486;-67
2023/07/26 12:18:32;;;;;;;7.03;1.88;;;;;;;;;;6304389;22;20429;-67
2023/07/26 12:21:04;;;;;;;5.95;2.10;;;;;;;;;;6305738;22;20019;-67
2023/07/26 12:23:58;;;;;;;7.88;1.60;;;;;;;;;;6313708;22;20026;-67
2023/07/26 12:26:31;;;;;;;7.77;2.70;;;;;;;;;;6302493;22;20030;-67
2023/07/26 12:29:16;;;;;;;7.78;2.50;;;;;;;;;;6299819;22;20019;-68
2023/07/26 12:31:45;;;;;;;6.82;2.10;;;;;;;;;;6284127;22;20023;-66
2023/07/26 12:34:13;;;;;;;6.57;1.85;;;;;;;;;;6303738;22;20091;-68
2023/07/26 12:36:50;;;;;;;6.75;2.78;;;;;;;;;;6315077;22;20071;-66
2023/07/26 12:39:20;;;;;;;5.80;2.13;;;;;;;;;;6306496;22;20018;-66
2023/07/26 12:41:48;;;;;;;7.18;1.90;;;;;;;;;;6309956;22;20533;-66
2023/07/26 12:44:16;;;;;;;7.00;2.45;;;;;;;;;;6287041;22;20077;-66
2023/07/26 12:46:46;;;;;;;8.43;3.15;;;;;;;;;;6314631;22;20015;-66
2023/07/26 12:49:18;;;;;;;6.47;2.15;;;;;;;;;;6302770;22;20033;-67
2023/07/26 12:51:47;;;;;;;6.80;2.20;;;;;;;;;;6311411;22;20093;-67
2023/07/26 12:54:16;;;;;;;7.95;2.70;;;;;;;;;;6303753;22;20081;-67
2023/07/26 12:56:43;;;;;;;6.53;2.40;;;;;;;;;;6314514;22;20014;-67
2023/07/26 12:59:12;;;;;;;6.93;2.83;;;;;;;;;;6304112;22;20014;-67
2023/07/26 13:01:39;;;;;;;7.85;2.53;;;;;;;;;;6314393;22;20105;-67
2023/07/26 13:04:08;;;;;;;6.47;2.10;;;;;;;;;;6310530;22;20015;-67
2023/07/26 13:06:37;;;;;;;8.13;2.22;;;;;;;;;;6305223;22;20524;-66
2023/07/26 13:09:06;;;;;;;7.60;2.42;;;;;;;;;;6313963;22;20015;-67
2023/07/26 13:11:35;;;;;;;7.20;2.95;;;;;;;;;;6301371;22;20011;-67
2023/07/26 13:14:03;;;;;;;6.25;1.92;;;;;;;;;;6311930;22;20041;-67
2023/07/26 13:16:31;;;;;;;5.23;1.60;;;;;;;;;;6303031;22;20021;-67
2023/07/26 13:19:01;;;;;;;6.45;2.00;;;;;;;;;;6312179;22;20072;-67
2023/07/26 13:21:28;;;;;;;6.35;2.42;;;;;;;;;;6308389;22;20067;-67
2023/07/26 13:23:56;;;;;;;5.82;2.35;;;;;;;;;;6313028;22;20097;-67
2023/07/26 13:26:24;;;;;;;8.77;2.60;;;;;;;;;;6303322;22;20393;-67
2023/07/26 13:28:54;;;;;;;6.63;2.50;;;;;;;;;;6314520;22;20021;-67
2023/07/26 13:31:21;;;;;;;5.70;1.83;;;;;;;;;;6302717;22;20015;-69
2023/07/26 13:33:49;;;;;;;6.07;2.00;;;;;;;;;;6312973;22;20057;-66
2023/07/26 13:36:21;;;;;;;5.82;2.17;;;;;;;;;;6315361;22;20584;-67
2023/07/26 13:38:48;;;;;;;5.20;1.90;;;;;;;;;;6305439;22;20018;-67
2023/07/26 13:41:16;;;;;;;6.47;2.60;;;;;;;;;;6308995;22;20515;-67
2023/07/26 13:43:44;;;;;;;5.97;1.95;;;;;;;;;;6304849;22;20038;-66
2023/07/26 13:46:13;;;;;;;5.57;1.80;;;;;;;;;;6313400;22;20029;-67
2023/07/26 13:48:44;;;;;;;7.28;1.92;;;;;;;;;;6306322;22;20090;-59
2023/07/26 13:51:12;;;;;;;5.30;1.80;;;;;;;;;;6310625;22;20010;-66
2023/07/26 13:53:40;;;;;;;6.53;2.00;;;;;;;;;;6312975;22;20014;-68
2023/07/26 13:56:10;;;;;;;5.03;1.58;;;;;;;;;;6311599;22;20019;-67
2023/07/26 13:58:37;;;;;;;7.30;1.95;;;;;;;;;;6306445;22;20049;-66
2023/07/26 14:01:05;;;;;;;8.02;2.55;;;;;;;;;;6308861;22;20011;-67
2023/07/26 14:03:34;;;;;;;5.35;1.80;;;;;;;;;;6312792;22;20464;-67
2023/07/26 14:06:02;;;;;;;5.53;2.03;;;;;;;;;;6309334;22;20022;-67
2023/07/26 14:08:29;;;;;;;6.38;2.03;;;;;;;;;;6300528;22;20038;-68
2023/07/26 14:10:57;;;;;;;5.75;1.80;;;;;;;;;;6315460;22;20022;-67
2023/07/26 14:13:25;;;;;;;4.72;1.55;;;;;;;;;;6289268;22;20015;-67
2023/07/26 14:15:53;;;;;;;6.10;1.80;;;;;;;;;;6313860;22;20373;-68
2023/07/26 14:18:35;;;;;;;5.30;2.00;;;;;;;;;;6299192;22;20301;-66
2023/07/26 14:21:03;;;;;;;5.97;2.17;;;;;;;;;;6309153;22;20477;-67
2023/07/26 14:23:31;;;;;;;5.03;1.92;;;;;;;;;;6299964;22;20015;-67
2023/07/26 14:26:00;;;;;;;4.82;1.80;;;;;;;;;;6307449;22;20445;-66
2023/07/26 14:28:29;;;;;;;5.35;1.75;;;;;;;;;;6313383;22;20022;-67
2023/07/26 14:30:57;;;;;;;5.83;2.00;;;;;;;;;;6305187;22;20110;-69
2023/07/26 14:33:25;;;;;;;6.43;1.95;;;;;;;;;;6306574;22;20018;-66
2023/07/26 14:36:12;;;;;;;5.00;1.80;;;;;;;;;;6305638;22;20019;-66
2023/07/26 14:38:39;;;;;;;6.03;1.83;;;;;;;;;;6304326;22;20019;-68
2023/07/26 14:41:08;;;;;;;6.45;1.85;;;;;;;;;;6308594;22;20022;-63
2023/07/26 14:43:35;;;;;;;4.77;1.60;;;;;;;;;;6309125;22;20022;-67
2023/07/26 14:46:03;;;;;;;5.30;1.83;;;;;;;;;;6307212;22;20014;-67
2023/07/26 14:48:31;;;;;;;6.63;2.15;;;;;;;;;;6294383;22;20018;-66
2023/07/26 14:50:59;;;;;;;5.38;1.77;;;;;;;;;;6308032;22;20025;-68
2023/07/26 14:53:28;;;;;;;4.95;1.90;;;;;;;;;;6314242;22;20465;-67
2023/07/26 14:55:56;;;;;;;5.97;1.90;;;;;;;;;;6307352;22;20101;-68
2023/07/26 14:58:24;;;;;;;5.85;1.63;;;;;;;;;;6310562;22;20029;-60
2023/07/26 15:00:52;;;;;;;7.20;1.88;;;;;;;;;;6300082;22;20019;-67
2023/07/26 15:03:20;;;;;;;6.03;1.77;;;;;;;;;;6273989;22;20015;-67
2023/07/26 15:05:48;;;;;;;6.70;2.20;;;;;;;;;;6299126;22;20015;-67